createdAt,value
2019-01-04T00:00:41.556Z,4.67
2019-01-04T00:03:10.418Z,3.60
2019-01-04T00:05:39.634Z,2.63
2019-01-04T00:08:08.280Z,4.37
2019-01-04T00:10:36.942Z,2.97
2019-01-04T00:13:06.777Z,4.30
2019-01-04T00:15:36.131Z,3.13
2019-01-04T00:18:04.771Z,2.63
2019-01-04T00:20:33.603Z,2.00
2019-01-04T00:23:02.234Z,4.20
2019-01-04T00:25:31.151Z,2.07
2019-01-04T00:28:00.231Z,6.77
2019-01-04T00:30:28.888Z,4.17
2019-01-04T00:32:57.602Z,9.10
2019-01-04T00:35:26.543Z,1.33
2019-01-04T00:37:55.182Z,5.47
2019-01-04T00:40:23.942Z,2.00
2019-01-04T00:42:52.620Z,1.57
2019-01-04T00:45:21.264Z,2.23
2019-01-04T00:47:50.671Z,3.33
2019-01-04T00:50:19.403Z,2.00
2019-01-04T00:52:48.027Z,2.10
2019-01-04T00:56:00.562Z,3.17
2019-01-04T00:59:09.213Z,2.97
2019-01-04T01:01:51.087Z,5.77
2019-01-04T01:05:12.546Z,1.83
2019-01-04T01:08:10.273Z,3.33
2019-01-04T01:11:27.258Z,2.13
2019-01-04T01:14:43.303Z,3.10
2019-01-04T01:18:11.519Z,2.17
2019-01-04T01:21:17.376Z,4.37
2019-01-04T01:24:32.100Z,3.07
2019-01-04T01:27:46.937Z,1.00
2019-01-04T01:30:51.679Z,1.50
2019-01-04T01:33:37.195Z,1.67
2019-01-04T01:36:27.997Z,5.40
2019-01-04T01:39:39.723Z,1.43
2019-01-04T01:42:44.549Z,3.13
2019-01-04T01:45:38.212Z,3.83
2019-01-04T01:48:35.334Z,5.70
2019-01-04T01:51:28.308Z,4.70
2019-01-04T01:53:57.672Z,2.17
2019-01-04T01:56:26.343Z,2.37
2019-01-04T01:58:54.986Z,4.33
2019-01-04T02:01:23.640Z,2.57
2019-01-04T02:04:01.991Z,5.00
2019-01-04T02:06:30.801Z,3.50
2019-01-04T02:08:59.422Z,3.47
2019-01-04T02:11:28.067Z,4.10
2019-01-04T02:13:56.765Z,2.63
2019-01-04T02:16:25.421Z,4.07
2019-01-04T02:18:55.068Z,5.17
2019-01-04T02:21:24.803Z,4.37
2019-01-04T02:23:53.432Z,7.83
2019-01-04T02:26:22.083Z,6.80
2019-01-04T02:28:51.029Z,7.47
2019-01-04T02:31:19.925Z,2.93
2019-01-04T02:33:48.585Z,5.67
2019-01-04T02:36:17.296Z,6.53
2019-01-04T02:38:46.288Z,4.50
2019-01-04T02:41:14.933Z,6.17
2019-01-04T02:43:43.924Z,7.67
2019-01-04T02:46:12.571Z,2.50
2019-01-04T02:48:41.252Z,9.57
2019-01-04T02:51:10.328Z,7.17
2019-01-04T02:53:39.571Z,7.70
2019-01-04T02:56:08.316Z,11.47
2019-01-04T02:58:36.948Z,6.63
2019-01-04T03:01:05.759Z,12.57
2019-01-04T03:03:34.418Z,8.87
2019-01-04T03:06:03.088Z,7.87
2019-01-04T03:08:31.738Z,13.03
2019-01-04T03:11:01.572Z,5.77
2019-01-04T03:13:30.709Z,7.83
2019-01-04T03:15:59.343Z,7.70
2019-01-04T03:18:32.440Z,7.77
2019-01-04T03:21:01.533Z,8.23
2019-01-04T03:23:30.203Z,8.50
2019-01-04T03:25:58.915Z,7.97
2019-01-04T03:28:27.624Z,13.57
2019-01-04T03:30:56.737Z,12.20
2019-01-04T03:33:25.516Z,12.87
2019-01-04T03:35:54.483Z,14.27
2019-01-04T03:38:23.125Z,5.73
2019-01-04T03:40:51.786Z,7.83
2019-01-04T03:43:20.460Z,16.97
2019-01-04T03:45:49.166Z,13.67
2019-01-04T03:48:17.883Z,17.20
2019-01-04T03:50:46.533Z,7.73
2019-01-04T03:53:16.319Z,14.73
2019-01-04T03:55:45.242Z,12.03
2019-01-04T03:58:14.184Z,10.87
2019-01-04T04:00:43.341Z,8.67
2019-01-04T04:03:12.175Z,10.23
2019-01-04T04:05:40.805Z,15.10
2019-01-04T04:08:09.451Z,12.73
2019-01-04T04:10:38.393Z,7.70
2019-01-04T04:13:07.057Z,12.83
2019-01-04T04:15:35.725Z,9.93
2019-01-04T04:18:04.428Z,11.97
2019-01-04T04:20:33.071Z,10.70
2019-01-04T04:23:02.158Z,17.20
2019-01-04T04:25:30.842Z,8.73
2019-01-04T04:27:59.879Z,14.70
2019-01-04T04:30:28.529Z,14.47
2019-01-04T04:32:57.511Z,11.97
2019-01-04T04:35:26.492Z,8.57
2019-01-04T04:37:55.132Z,12.43
2019-01-04T04:40:23.776Z,11.50
2019-01-04T04:42:52.404Z,16.90
2019-01-04T04:45:21.099Z,15.00
2019-01-04T04:47:49.739Z,12.90
2019-01-04T04:50:19.866Z,9.23
2019-01-04T04:52:48.865Z,11.47
2019-01-04T04:55:17.528Z,8.20
2019-01-04T04:57:46.223Z,9.17
2019-01-04T05:00:14.881Z,15.30
2019-01-04T05:02:43.863Z,15.23
2019-01-04T05:05:12.803Z,17.80
2019-01-04T05:07:41.637Z,20.80
2019-01-04T05:10:10.366Z,24.03
2019-01-04T05:12:39.034Z,17.27
2019-01-04T05:15:07.807Z,21.83
2019-01-04T05:17:36.820Z,15.17
2019-01-04T05:20:05.925Z,14.83
2019-01-04T05:22:35.112Z,14.70
2019-01-04T05:25:03.907Z,25.90
2019-01-04T05:27:32.965Z,22.67
2019-01-04T05:30:02.700Z,15.10
2019-01-04T05:32:31.338Z,14.33
2019-01-04T05:34:59.977Z,13.63
2019-01-04T05:37:28.645Z,21.27
2019-01-04T05:39:57.578Z,16.10
2019-01-04T05:42:26.210Z,17.33
2019-01-04T05:44:55.080Z,18.10
2019-01-04T05:47:24.039Z,13.13
2019-01-04T05:49:52.683Z,13.60
2019-01-04T05:52:21.325Z,15.63
2019-01-04T05:54:49.960Z,11.73
2019-01-04T05:57:18.915Z,13.23
2019-01-04T05:59:47.568Z,10.57
2019-01-04T06:02:16.571Z,11.90
2019-01-04T06:04:45.205Z,16.33
2019-01-04T06:07:14.937Z,15.30
2019-01-04T06:09:43.562Z,13.17
2019-01-04T06:12:12.220Z,15.23
2019-01-04T06:14:40.875Z,16.30
2019-01-04T06:17:10.890Z,11.83
2019-01-04T06:19:39.523Z,14.33
2019-01-04T06:22:08.287Z,13.47
2019-01-04T06:24:36.964Z,17.57
2019-01-04T06:27:05.634Z,18.07
2019-01-04T06:29:34.298Z,20.57
2019-01-04T06:32:03.259Z,14.03
2019-01-04T06:34:31.906Z,13.67
2019-01-04T06:37:00.553Z,11.07
2019-01-04T06:39:29.203Z,18.30
2019-01-04T06:41:57.839Z,12.50
2019-01-04T06:44:26.719Z,13.43
2019-01-04T06:47:21.546Z,13.30
2019-01-04T06:49:51.201Z,16.57
2019-01-04T06:52:22.219Z,16.13
2019-01-04T06:55:38.706Z,17.57
2019-01-04T06:58:07.687Z,12.47
2019-01-04T07:00:36.623Z,14.13
2019-01-04T07:03:05.630Z,16.47
2019-01-04T07:05:35.722Z,13.57
2019-01-04T07:08:05.432Z,17.93
2019-01-04T07:10:34.157Z,16.33
2019-01-04T07:13:02.867Z,19.50
2019-01-04T07:15:31.508Z,12.87
2019-01-04T07:18:00.747Z,14.23
2019-01-04T07:20:29.500Z,16.00
2019-01-04T07:23:00.393Z,20.33
2019-01-04T07:25:29.196Z,17.53
2019-01-04T07:27:57.952Z,17.57
2019-01-04T07:30:28.748Z,24.47
2019-01-04T07:32:57.654Z,19.77
2019-01-04T07:35:26.295Z,20.03
2019-01-04T07:37:55.281Z,19.80
2019-01-04T07:40:26.873Z,19.40
2019-01-04T07:42:55.880Z,16.83
2019-01-04T07:45:24.616Z,20.80
2019-01-04T07:47:53.566Z,18.67
2019-01-04T07:50:22.202Z,21.77
2019-01-04T07:52:50.971Z,20.03
2019-01-04T07:55:19.931Z,26.67
2019-01-04T07:57:48.809Z,19.87
2019-01-04T08:00:17.664Z,15.50
2019-01-04T08:02:51.154Z,19.50
2019-01-04T08:05:22.432Z,19.07
2019-01-04T08:07:51.235Z,18.43
2019-01-04T08:10:19.879Z,19.30
2019-01-04T08:12:48.537Z,20.83
2019-01-04T08:15:17.198Z,17.07
2019-01-04T08:17:45.835Z,23.40
2019-01-04T08:20:14.486Z,19.17
2019-01-04T08:22:43.123Z,20.50
2019-01-04T08:25:11.888Z,17.63
2019-01-04T08:27:40.541Z,15.00
2019-01-04T08:30:17.331Z,19.57
2019-01-04T08:32:45.991Z,19.60
2019-01-04T08:35:14.716Z,16.43
2019-01-04T08:37:43.412Z,17.03
2019-01-04T08:40:12.823Z,17.67
2019-01-04T08:42:42.999Z,17.83
2019-01-04T08:45:15.714Z,15.33
2019-01-04T08:47:44.666Z,15.63
2019-01-04T08:50:14.532Z,18.27
2019-01-04T08:52:43.570Z,18.40
2019-01-04T08:55:15.737Z,19.70
2019-01-04T08:57:44.640Z,15.00
2019-01-04T09:00:14.459Z,17.50
2019-01-04T09:02:43.124Z,15.13
2019-01-04T09:05:11.759Z,14.70
2019-01-04T09:07:41.022Z,14.23
2019-01-04T09:10:09.731Z,18.90
2019-01-04T09:12:38.411Z,15.50
2019-01-04T09:15:09.620Z,14.53
2019-01-04T09:17:38.623Z,15.20
2019-01-04T09:20:09.539Z,16.63
2019-01-04T09:22:38.510Z,16.87
2019-01-04T09:25:08.673Z,14.33
2019-01-04T09:27:38.878Z,12.67
2019-01-04T09:30:11.046Z,14.07
2019-01-04T09:32:39.767Z,11.23
2019-01-04T09:35:08.435Z,13.50
2019-01-04T09:37:37.555Z,20.03
2019-01-04T09:40:08.356Z,14.00
2019-01-04T09:42:37.123Z,13.03
2019-01-04T09:45:06.878Z,14.33
2019-01-04T09:47:35.569Z,17.37
2019-01-04T09:50:04.731Z,14.03
2019-01-04T09:52:33.728Z,18.60
2019-01-04T09:55:02.659Z,9.17
2019-01-04T09:57:31.345Z,12.67
2019-01-04T10:00:00.021Z,9.63
2019-01-04T10:02:28.703Z,17.73
2019-01-04T10:04:57.392Z,13.37
2019-01-04T10:07:26.346Z,12.07
2019-01-04T10:09:55.066Z,13.57
2019-01-04T10:12:23.711Z,12.43
2019-01-04T10:14:52.447Z,9.63
2019-01-04T10:17:21.176Z,15.50
2019-01-04T10:19:49.920Z,14.90
2019-01-04T10:22:18.911Z,15.07
2019-01-04T10:24:47.620Z,14.50
2019-01-04T10:27:16.373Z,12.40
2019-01-04T10:29:45.067Z,11.00
2019-01-04T10:32:14.098Z,11.37
2019-01-04T10:34:42.844Z,13.93
2019-01-04T10:37:11.594Z,20.07
2019-01-04T10:39:40.327Z,12.73
2019-01-04T10:42:09.027Z,11.63
2019-01-04T10:44:37.784Z,10.97
2019-01-04T10:47:06.464Z,10.80
2019-01-04T10:49:35.417Z,9.77
2019-01-04T10:52:04.170Z,12.37
2019-01-04T10:54:32.851Z,10.07
2019-01-04T10:57:01.523Z,12.87
2019-01-04T10:59:30.236Z,14.60
2019-01-04T11:01:59.244Z,9.13
2019-01-04T11:04:27.903Z,11.27
2019-01-04T11:06:56.603Z,12.20
2019-01-04T11:09:26.287Z,12.33
2019-01-04T11:11:55.340Z,9.43
2019-01-04T11:14:24.451Z,9.67
2019-01-04T11:16:53.190Z,11.27
2019-01-04T11:19:22.206Z,7.63
2019-01-04T11:21:50.987Z,8.07
2019-01-04T11:24:58.423Z,13.63
2019-01-04T11:28:16.872Z,8.47
2019-01-04T11:30:59.455Z,9.77
2019-01-04T11:33:56.414Z,9.17
2019-01-04T11:36:45.982Z,6.50
2019-01-04T11:39:44.463Z,7.20
2019-01-04T11:42:47.731Z,8.90
2019-01-04T11:45:26.988Z,5.70
2019-01-04T11:48:27.624Z,7.07
2019-01-04T11:51:02.987Z,5.00
2019-01-04T11:53:31.724Z,7.93
2019-01-04T11:56:00.648Z,9.80
2019-01-04T11:58:29.311Z,5.80
2019-01-04T12:00:58.079Z,7.50
2019-01-04T12:03:26.809Z,8.57
2019-01-04T12:05:55.481Z,11.73
2019-01-04T12:08:24.166Z,6.63
2019-01-04T12:10:53.380Z,6.83
2019-01-04T12:13:22.067Z,7.17
2019-01-04T12:15:51.375Z,6.30
2019-01-04T12:18:20.675Z,5.47
2019-01-04T12:20:49.434Z,5.80
2019-01-04T12:23:19.101Z,7.20
2019-01-04T12:25:48.099Z,6.63
2019-01-04T12:28:17.164Z,10.20
2019-01-04T12:30:45.821Z,6.17
2019-01-04T12:33:14.515Z,5.30
2019-01-04T12:35:43.142Z,8.37
2019-01-04T12:38:11.835Z,9.07
2019-01-04T12:40:40.491Z,7.07
2019-01-04T12:43:09.523Z,6.67
2019-01-04T12:45:38.479Z,5.33
2019-01-04T12:48:07.134Z,5.80
2019-01-04T12:50:35.767Z,4.30
2019-01-04T12:53:04.439Z,8.73
2019-01-04T12:55:33.104Z,4.57
2019-01-04T12:58:02.833Z,5.27
2019-01-04T13:00:31.466Z,6.03
2019-01-04T13:03:00.519Z,3.97
2019-01-04T13:05:29.185Z,10.03
2019-01-04T13:07:57.821Z,4.20
2019-01-04T13:10:26.474Z,8.80
2019-01-04T13:12:55.136Z,5.97
2019-01-04T13:15:23.794Z,4.27
2019-01-04T13:17:52.603Z,9.20
2019-01-04T13:20:21.241Z,5.50
2019-01-04T13:22:49.889Z,3.57
2019-01-04T13:25:18.587Z,4.50
2019-01-04T13:27:47.253Z,3.63
2019-01-04T13:30:15.914Z,3.17
2019-01-04T13:32:44.871Z,4.63
2019-01-04T13:35:14.165Z,4.10
2019-01-04T13:37:42.818Z,3.23
2019-01-04T13:40:11.616Z,8.87
2019-01-04T13:42:40.939Z,6.00
2019-01-04T13:45:09.590Z,5.90
2019-01-04T13:47:38.218Z,4.27
2019-01-04T13:50:07.339Z,3.90
2019-01-04T13:52:36.247Z,3.17
2019-01-04T13:55:05.128Z,4.37
2019-01-04T13:57:34.491Z,4.23
2019-01-04T14:00:03.483Z,4.43
2019-01-04T14:02:32.372Z,8.73
2019-01-04T14:05:01.010Z,5.33
2019-01-04T14:07:29.652Z,4.13
2019-01-04T14:09:58.298Z,4.27
2019-01-04T14:12:26.934Z,4.60
2019-01-04T14:14:55.920Z,3.70
2019-01-04T14:17:24.569Z,4.23
2019-01-04T14:19:53.199Z,3.47
2019-01-04T14:22:22.416Z,3.00
2019-01-04T14:24:51.494Z,3.10
2019-01-04T14:27:20.165Z,3.10
2019-01-04T14:29:48.784Z,3.00
2019-01-04T14:32:17.484Z,4.17
2019-01-04T14:34:46.134Z,4.27
2019-01-04T14:37:14.897Z,4.10
2019-01-04T14:39:43.830Z,2.53
2019-01-04T14:42:13.098Z,3.93
2019-01-04T14:44:41.731Z,3.20
2019-01-04T14:47:10.380Z,3.53
2019-01-04T14:49:41.448Z,3.53
2019-01-04T14:52:15.123Z,2.73
2019-01-04T14:54:43.789Z,3.70
2019-01-04T14:57:12.800Z,2.87
2019-01-04T14:59:41.734Z,3.50
2019-01-04T15:02:11.463Z,2.80
2019-01-04T15:04:40.151Z,3.40
2019-01-04T15:07:08.836Z,3.90
2019-01-04T15:09:37.476Z,4.13
2019-01-04T15:12:06.246Z,4.33
2019-01-04T15:14:35.192Z,3.63
2019-01-04T15:17:03.855Z,4.33
2019-01-04T15:19:32.499Z,5.63
2019-01-04T15:22:01.144Z,4.57
2019-01-04T15:24:30.513Z,5.87
2019-01-04T15:26:59.190Z,3.90
2019-01-04T15:29:28.135Z,5.03
2019-01-04T15:31:57.388Z,3.43
2019-01-04T15:34:27.067Z,5.67
2019-01-04T15:36:55.726Z,4.90
2019-01-04T15:39:24.367Z,5.33
2019-01-04T15:41:53.010Z,4.23
2019-01-04T15:44:21.660Z,3.93
2019-01-04T15:46:50.356Z,6.93
2019-01-04T15:49:19.063Z,4.53
2019-01-04T15:51:47.716Z,14.53
2019-01-04T15:54:17.005Z,6.00
2019-01-04T15:56:45.622Z,3.17
2019-01-04T15:59:15.623Z,5.33
2019-01-04T16:01:44.287Z,5.67
2019-01-04T16:04:12.926Z,5.57
2019-01-04T16:06:41.590Z,4.77
2019-01-04T16:09:10.315Z,4.97
2019-01-04T16:11:39.231Z,6.53
2019-01-04T16:14:08.098Z,4.93
2019-01-04T16:16:37.079Z,7.43
2019-01-04T16:19:05.744Z,6.87
2019-01-04T16:21:34.441Z,6.70
2019-01-04T16:24:03.079Z,8.03
2019-01-04T16:26:32.029Z,6.60
2019-01-04T16:29:00.681Z,8.23
2019-01-04T16:31:29.642Z,9.47
2019-01-04T16:33:58.752Z,7.20
2019-01-04T16:36:27.499Z,7.37
2019-01-04T16:38:56.161Z,5.90
2019-01-04T16:41:24.824Z,10.73
2019-01-04T16:43:54.519Z,7.73
2019-01-04T16:46:23.998Z,13.00
2019-01-04T16:48:52.641Z,10.70
2019-01-04T16:51:21.624Z,6.40
2019-01-04T16:53:50.359Z,9.73
2019-01-04T16:56:19.744Z,8.77
2019-01-04T16:58:48.447Z,7.07
2019-01-04T17:01:17.131Z,10.67
2019-01-04T17:03:45.810Z,11.57
2019-01-04T17:06:14.492Z,10.13
2019-01-04T17:08:44.250Z,8.07
2019-01-04T17:11:13.249Z,5.53
2019-01-04T17:13:42.336Z,15.60
2019-01-04T17:16:11.338Z,6.13
2019-01-04T17:18:40.103Z,5.83
2019-01-04T17:21:09.015Z,11.67
2019-01-04T17:23:37.682Z,11.17
2019-01-04T17:26:06.338Z,11.90
2019-01-04T17:28:35.046Z,8.57
2019-01-04T17:31:03.695Z,15.57
2019-01-04T17:33:32.470Z,16.63
2019-01-04T17:36:01.156Z,14.77
2019-01-04T17:38:29.839Z,4.73
2019-01-04T17:40:58.479Z,6.43
2019-01-04T17:43:27.127Z,17.07
2019-01-04T17:45:56.103Z,7.77
2019-01-04T17:48:24.823Z,6.37
2019-01-04T17:50:53.488Z,14.47
2019-01-04T17:53:22.149Z,6.73
2019-01-04T17:55:50.785Z,4.37
2019-01-04T17:58:19.432Z,7.10
2019-01-04T18:00:48.299Z,12.40
2019-01-04T18:03:17.027Z,11.73
2019-01-04T18:05:45.975Z,14.07
2019-01-04T18:08:14.708Z,7.73
2019-01-04T18:10:43.448Z,10.90
2019-01-04T18:13:12.397Z,12.73
2019-01-04T18:15:41.072Z,14.87
2019-01-04T18:18:09.996Z,8.57
2019-01-04T18:20:38.879Z,6.57
2019-01-04T18:23:07.546Z,7.33
2019-01-04T18:25:36.431Z,10.50
2019-01-04T18:28:05.107Z,10.90
2019-01-04T18:30:33.847Z,13.37
2019-01-04T18:33:02.552Z,7.40
2019-01-04T18:35:31.231Z,9.43
2019-01-04T18:37:59.933Z,10.73
2019-01-04T18:40:28.829Z,5.03
2019-01-04T18:42:57.711Z,7.10
2019-01-04T18:45:26.368Z,10.60
2019-01-04T18:47:55.259Z,10.57
2019-01-04T18:50:24.254Z,8.50
2019-01-04T18:52:52.927Z,10.87
2019-01-04T18:55:22.659Z,9.07
2019-01-04T18:57:52.105Z,18.40
2019-01-04T19:00:20.801Z,16.57
2019-01-04T19:02:49.523Z,10.23
2019-01-04T19:05:18.392Z,7.97
2019-01-04T19:07:47.087Z,11.00
2019-01-04T19:10:15.760Z,7.17
2019-01-04T19:12:45.524Z,8.43
2019-01-04T19:15:14.720Z,9.20
2019-01-04T19:17:43.412Z,13.53
2019-01-04T19:20:12.087Z,9.27
2019-01-04T19:22:40.735Z,5.60
2019-01-04T19:25:09.711Z,10.63
2019-01-04T19:27:38.796Z,10.03
2019-01-04T19:30:08.644Z,5.90
2019-01-04T19:32:37.330Z,5.20
2019-01-04T19:35:06.132Z,6.13
2019-01-04T19:37:34.786Z,9.63
2019-01-04T19:40:04.480Z,11.13
2019-01-04T19:42:33.123Z,7.43
2019-01-04T19:45:02.123Z,8.47
2019-01-04T19:47:30.766Z,7.47
2019-01-04T19:49:59.443Z,5.43
2019-01-04T19:52:28.192Z,9.70
2019-01-04T19:54:56.922Z,6.33
2019-01-04T19:57:25.611Z,8.50
2019-01-04T19:59:54.583Z,14.37
2019-01-04T20:02:23.246Z,7.93
2019-01-04T20:04:51.906Z,8.57
2019-01-04T20:08:01.784Z,13.60
2019-01-04T20:11:17.485Z,15.70
2019-01-04T20:14:49.831Z,13.03
2019-01-04T20:17:39.712Z,10.23
2019-01-04T20:20:22.339Z,7.20
2019-01-04T20:23:08.963Z,12.90
2019-01-04T20:26:05.081Z,9.37
2019-01-04T20:28:55.931Z,9.17
2019-01-04T20:31:42.940Z,10.97
2019-01-04T20:34:28.270Z,8.87
2019-01-04T20:37:15.273Z,13.60
2019-01-04T20:40:05.289Z,9.77
2019-01-04T20:42:45.531Z,8.60
2019-01-04T20:45:32.843Z,5.90
2019-01-04T20:48:19.503Z,4.57
2019-01-04T20:51:00.710Z,6.80
2019-01-04T20:53:47.148Z,8.50
2019-01-04T20:56:34.008Z,7.77
2019-01-04T20:59:15.397Z,9.47
2019-01-04T21:02:19.181Z,8.33
2019-01-04T21:05:13.226Z,4.83
2019-01-04T21:07:51.254Z,9.33
2019-01-04T21:10:34.770Z,16.73
2019-01-04T21:13:21.348Z,9.73
2019-01-04T21:16:08.034Z,7.60
2019-01-04T21:18:58.889Z,6.57
2019-01-04T21:21:45.584Z,8.37
2019-01-04T21:24:27.302Z,6.20
2019-01-04T21:27:11.551Z,9.40
2019-01-04T21:29:59.306Z,8.13
2019-01-04T21:32:54.467Z,8.73
2019-01-04T21:35:41.919Z,18.57
2019-01-04T21:38:35.796Z,6.53
2019-01-04T21:41:31.741Z,7.07
2019-01-04T21:44:28.486Z,9.83
2019-01-04T21:47:13.955Z,12.40
2019-01-04T21:50:07.776Z,12.30
2019-01-04T21:53:04.667Z,11.27
2019-01-04T21:57:57.610Z,9.67
2019-01-04T22:00:44.308Z,7.47
2019-01-04T22:03:29.011Z,14.00
2019-01-04T22:06:28.826Z,8.47
2019-01-04T22:09:16.696Z,10.27
2019-01-04T22:11:56.162Z,7.87
2019-01-04T22:14:43.220Z,14.03
2019-01-04T22:17:41.392Z,6.20
2019-01-04T22:20:30.649Z,9.93
2019-01-04T22:23:14.714Z,7.30
2019-01-04T22:26:01.435Z,13.33
2019-01-04T22:28:52.675Z,7.53
2019-01-04T22:31:46.506Z,10.17
2019-01-04T22:34:43.992Z,7.20
2019-01-04T22:37:30.586Z,11.67
2019-01-04T22:40:17.183Z,11.63
2019-01-04T22:43:03.915Z,9.93
2019-01-04T22:45:52.998Z,13.17
2019-01-04T22:48:44.370Z,6.50
2019-01-04T22:51:31.131Z,10.63
2019-01-04T22:54:50.068Z,11.57
2019-01-04T22:57:32.043Z,5.70
2019-01-04T23:00:29.560Z,10.23
2019-01-04T23:03:17.336Z,9.40
2019-01-04T23:06:03.944Z,13.17
2019-01-04T23:08:50.656Z,9.00
2019-01-04T23:11:41.473Z,7.83
2019-01-04T23:14:45.460Z,8.63
2019-01-04T23:17:24.875Z,5.37
2019-01-04T23:20:26.387Z,7.83
2019-01-04T23:23:13.208Z,9.83
2019-01-04T23:26:12.695Z,7.57
2019-01-04T23:28:59.510Z,9.27
2019-01-04T23:32:00.819Z,5.13
2019-01-04T23:34:47.309Z,7.87
2019-01-04T23:37:34.231Z,4.10
2019-01-04T23:40:21.047Z,5.47
2019-01-04T23:43:07.536Z,6.50
2019-01-04T23:45:54.551Z,6.80
2019-01-04T23:48:41.031Z,5.30
2019-01-04T23:51:32.952Z,4.03
2019-01-04T23:54:15.779Z,5.40
2019-01-04T23:57:02.275Z,4.53
2019-01-04T23:59:40.296Z,7.70
